Private Wetterstation Sandau
Wetterdaten: Donnerstag, 22.03.2012
Datum Zeit Temp. A. Feuchte A. Luftdruck Regen Wind Richtung Richtung Taupunkt Windchill
22.03.2012 00:02 11,9 C 76 % 1035,9 hPa 0,0 l/m 1,1 km/h (1 Bft) NW 315 7,8 C 11,9 C
22.03.2012 00:07 11,9 C 76 % 1035,9 hPa 0,0 l/m 0,0 km/h (0 Bft) NW 315 7,8 C 11,9 C
22.03.2012 00:12 11,9 C 76 % 1036,0 hPa 0,0 l/m 0,0 km/h (0 Bft) NW 315 7,8 C 11,9 C
22.03.2012 00:17 11,9 C 76 % 1036,0 hPa 0,0 l/m 0,0 km/h (0 Bft) N 360 7,8 C 11,9 C
22.03.2012 00:22 11,8 C 76 % 1036,0 hPa 0,0 l/m 0,0 km/h (0 Bft) NW 315 7,7 C 11,8 C
22.03.2012 00:27 11,8 C 76 % 1035,8 hPa 0,0 l/m 0,0 km/h (0 Bft) NW 315 7,7 C 11,8 C
22.03.2012 00:32 11,8 C 76 % 1035,9 hPa 0,0 l/m 0,0 km/h (0 Bft) N-NW 337 7,7 C 11,8 C
22.03.2012 00:37 11,8 C 76 % 1036,0 hPa 0,0 l/m 0,0 km/h (0 Bft) N-NW 337 7,7 C 11,8 C
22.03.2012 00:42 11,8 C 76 % 1035,9 hPa 0,0 l/m 0,0 km/h (0 Bft) NW 315 7,7 C 11,8 C
22.03.2012 00:47 11,8 C 76 % 1036,0 hPa 0,0 l/m 0,0 km/h (0 Bft) W-NW 292 7,7 C 11,8 C
22.03.2012 00:52 11,8 C 76 % 1036,0 hPa 0,0 l/m 1,4 km/h (1 Bft) NW 315 7,7 C 11,8 C
22.03.2012 00:57 11,7 C 76 % 1036,0 hPa 0,0 l/m 0,0 km/h (0 Bft) N-NW 337 7,6 C 11,7 C
22.03.2012 01:02 11,6 C 76 % 1035,8 hPa 0,0 l/m 1,4 km/h (1 Bft) W 270 7,5 C 11,6 C
22.03.2012 01:07 11,6 C 76 % 1035,8 hPa 0,0 l/m 0,0 km/h (0 Bft) W 270 7,5 C 11,6 C
22.03.2012 01:12 11,6 C 76 % 1035,9 hPa 0,0 l/m 0,0 km/h (0 Bft) N 360 7,5 C 11,6 C
22.03.2012 01:17 11,5 C 76 % 1035,9 hPa 0,0 l/m 0,0 km/h (0 Bft) N 360 7,4 C 11,5 C
22.03.2012 01:22 11,4 C 76 % 1035,9 hPa 0,0 l/m 0,0 km/h (0 Bft) W-NW 292 7,3 C 11,4 C
22.03.2012 01:27 11,4 C 77 % 1035,9 hPa 0,0 l/m 0,0 km/h (0 Bft) N-NW 337 7,5 C 11,4 C
22.03.2012 01:32 11,3 C 77 % 1035,9 hPa 0,0 l/m 0,0 km/h (0 Bft) W-NW 292 7,4 C 11,3 C
22.03.2012 01:37 11,3 C 77 % 1035,9 hPa 0,0 l/m 0,0 km/h (0 Bft) N 360 7,4 C 11,3 C
22.03.2012 01:42 11,2 C 77 % 1035,8 hPa 0,0 l/m 0,0 km/h (0 Bft) W 270 7,3 C 11,2 C
22.03.2012 01:47 11,1 C 77 % 1035,9 hPa 0,0 l/m 0,0 km/h (0 Bft) NW 315 7,2 C 11,1 C
22.03.2012 01:52 11,0 C 77 % 1035,7 hPa 0,0 l/m 0,0 km/h (0 Bft) N 360 7,1 C 11,0 C
22.03.2012 01:57 10,9 C 77 % 1035,7 hPa 0,0 l/m 0,0 km/h (0 Bft) NW 315 7,0 C 10,9 C
22.03.2012 02:02 10,9 C 77 % 1035,8 hPa 0,0 l/m 0,0 km/h (0 Bft) NW 315 7,0 C 10,9 C
22.03.2012 02:07 10,8 C 77 % 1035,9 hPa 0,0 l/m 0,0 km/h (0 Bft) N-NW 337 6,9 C 10,8 C
22.03.2012 02:12 10,6 C 77 % 1035,9 hPa 0,0 l/m 0,0 km/h (0 Bft) NW 315 6,7 C 10,6 C
22.03.2012 02:17 10,5 C 78 % 1035,8 hPa 0,0 l/m 0,0 km/h (0 Bft) NW 315 6,8 C 10,5 C
22.03.2012 02:22 10,5 C 78 % 1035,8 hPa 0,0 l/m 0,0 km/h (0 Bft) NW 315 6,8 C 10,5 C
22.03.2012 02:27 10,4 C 78 % 1035,8 hPa 0,0 l/m 0,0 km/h (0 Bft) N-NW 337 6,7 C 10,4 C
22.03.2012 02:32 10,2 C 78 % 1035,7 hPa 0,0 l/m 0,0 km/h (0 Bft) N-NW 337 6,5 C 10,2 C
22.03.2012 02:37 10,1 C 78 % 1035,8 hPa 0,0 l/m 0,0 km/h (0 Bft) N-NW 337 6,4 C 10,1 C
22.03.2012 02:42 9,9 C 78 % 1035,9 hPa 0,0 l/m 0,0 km/h (0 Bft) NW 315 6,2 C 9,9 C
22.03.2012 02:47 9,8 C 78 % 1035,7 hPa 0,0 l/m 0,0 km/h (0 Bft) NW 315 6,1 C 9,8 C
22.03.2012 02:52 9,7 C 79 % 1035,5 hPa 0,0 l/m 0,0 km/h (0 Bft) W-NW 292 6,2 C 9,7 C
22.03.2012 02:57 9,6 C 79 % 1035,6 hPa 0,0 l/m 1,1 km/h (1 Bft) W-NW 292 6,1 C 9,6 C
22.03.2012 03:02 9,5 C 79 % 1035,6 hPa 0,0 l/m 0,0 km/h (0 Bft) W-NW 292 6,0 C 9,5 C
22.03.2012 03:07 9,4 C 79 % 1035,6 hPa 0,0 l/m 0,0 km/h (0 Bft) W-NW 292 5,9 C 9,4 C
22.03.2012 03:12 9,4 C 79 % 1035,6 hPa 0,0 l/m 0,0 km/h (0 Bft) W-NW 292 5,9 C 9,4 C
22.03.2012 03:17 9,3 C 79 % 1035,7 hPa 0,0 l/m 0,0 km/h (0 Bft) W-NW 292 5,8 C 9,3 C
22.03.2012 03:22 9,2 C 79 % 1035,7 hPa 0,0 l/m 0,0 km/h (0 Bft) W-NW 292 5,8 C 9,2 C
22.03.2012 03:27 9,0 C 80 % 1035,8 hPa 0,0 l/m 0,0 km/h (0 Bft) W-NW 292 5,7 C 9,0 C
22.03.2012 03:32 8,9 C 80 % 1035,6 hPa 0,0 l/m 0,0 km/h (0 Bft) W-NW 292 5,6 C 8,9 C
22.03.2012 03:37 8,9 C 80 % 1035,7 hPa 0,0 l/m 0,0 km/h (0 Bft) W-NW 292 5,6 C 8,9 C
22.03.2012 03:42 8,9 C 80 % 1035,7 hPa 0,0 l/m 0,0 km/h (0 Bft) W-NW 292 5,6 C 8,9 C
22.03.2012 03:47 8,8 C 80 % 1035,6 hPa 0,0 l/m 0,0 km/h (0 Bft) W-NW 292 5,5 C 8,8 C
22.03.2012 03:52 8,7 C 80 % 1035,7 hPa 0,0 l/m 0,0 km/h (0 Bft) W-NW 292 5,4 C 8,7 C
22.03.2012 03:57 8,7 C 80 % 1035,6 hPa 0,0 l/m 0,0 km/h (0 Bft) W-NW 292 5,4 C 8,7 C
22.03.2012 04:02 8,6 C 80 % 1035,6 hPa 0,0 l/m 0,0 km/h (0 Bft) W-NW 292 5,3 C 8,6 C
22.03.2012 04:07 8,5 C 80 % 1035,5 hPa 0,0 l/m 0,0 km/h (0 Bft) W-NW 292 5,3 C 8,5 C
22.03.2012 04:12 8,4 C 81 % 1035,4 hPa 0,0 l/m 0,0 km/h (0 Bft) W-NW 292 5,3 C 8,4 C
22.03.2012 04:17 8,3 C 81 % 1035,4 hPa 0,0 l/m 0,0 km/h (0 Bft) W-NW 292 5,2 C 8,3 C
22.03.2012 04:22 8,3 C 81 % 1035,5 hPa 0,0 l/m 0,0 km/h (0 Bft) W-NW 292 5,2 C 8,3 C
22.03.2012 04:27 8,2 C 81 % 1035,5 hPa 0,0 l/m 0,0 km/h (0 Bft) W-NW 292 5,1 C 8,2 C
22.03.2012 04:32 8,1 C 81 % 1035,4 hPa 0,0 l/m 0,0 km/h (0 Bft) W-NW 292 5,0 C 8,1 C
22.03.2012 04:37 8,1 C 81 % 1035,4 hPa 0,0 l/m 0,0 km/h (0 Bft) W-NW 292 5,0 C 8,1 C
22.03.2012 04:42 8,1 C 81 % 1035,5 hPa 0,0 l/m 0,0 km/h (0 Bft) W-NW 292 5,0 C 8,1 C
22.03.2012 04:47 8,0 C 81 % 1035,5 hPa 0,0 l/m 0,0 km/h (0 Bft) W-NW 292 4,9 C 8,0 C
22.03.2012 04:52 7,9 C 81 % 1035,4 hPa 0,0 l/m 0,0 km/h (0 Bft) W-NW 292 4,8 C 7,9 C
22.03.2012 04:57 7,9 C 81 % 1035,4 hPa 0,0 l/m 0,0 km/h (0 Bft) W-NW 292 4,8 C 7,9 C
22.03.2012 05:02 7,9 C 82 % 1035,3 hPa 0,0 l/m 1,4 km/h (1 Bft) W-NW 292 5,0 C 7,9 C
22.03.2012 05:07 7,9 C 82 % 1035,4 hPa 0,0 l/m 0,0 km/h (0 Bft) W-NW 292 5,0 C 7,9 C
22.03.2012 05:12 7,9 C 82 % 1035,3 hPa 0,0 l/m 0,0 km/h (0 Bft) W-NW 292 5,0 C 7,9 C
22.03.2012 05:17 7,8 C 82 % 1035,4 hPa 0,0 l/m 0,0 km/h (0 Bft) NW 315 4,9 C 7,8 C
22.03.2012 05:22 7,6 C 82 % 1035,3 hPa 0,0 l/m 0,0 km/h (0 Bft) W-NW 292 4,7 C 7,6 C
22.03.2012 05:27 7,5 C 83 % 1035,5 hPa 0,0 l/m 0,0 km/h (0 Bft) NW 315 4,8 C 7,5 C
22.03.2012 05:32 7,3 C 82 % 1035,4 hPa 0,0 l/m 0,0 km/h (0 Bft) NW 315 4,4 C 7,3 C
22.03.2012 05:37 7,3 C 83 % 1035,4 hPa 0,0 l/m 0,0 km/h (0 Bft) W-NW 292 4,6 C 7,3 C
22.03.2012 05:42 7,3 C 83 % 1035,3 hPa 0,0 l/m 1,1 km/h (1 Bft) N 360 4,6 C 7,3 C
22.03.2012 05:47 7,2 C 83 % 1035,2 hPa 0,0 l/m 0,0 km/h (0 Bft) N 360 4,5 C 7,2 C
22.03.2012 05:52 7,1 C 84 % 1035,2 hPa 0,0 l/m 0,0 km/h (0 Bft) N 360 4,6 C 7,1 C
22.03.2012 05:57 7,0 C 84 % 1035,4 hPa 0,0 l/m 0,0 km/h (0 Bft) N 360 4,5 C 7,0 C
22.03.2012 06:02 6,9 C 84 % 1035,2 hPa 0,0 l/m 0,0 km/h (0 Bft) N 360 4,4 C 6,9 C
22.03.2012 06:07 6,9 C 84 % 1035,3 hPa 0,0 l/m 0,0 km/h (0 Bft) N 360 4,4 C 6,9 C
22.03.2012 06:12 6,9 C 84 % 1035,4 hPa 0,0 l/m 0,0 km/h (0 Bft) N 360 4,4 C 6,9 C
22.03.2012 06:17 6,9 C 84 % 1035,4 hPa 0,0 l/m 0,0 km/h (0 Bft) N 360 4,4 C 6,9 C
22.03.2012 06:22 6,9 C 84 % 1035,3 hPa 0,0 l/m 0,0 km/h (0 Bft) N 360 4,4 C 6,9 C
22.03.2012 06:27 6,9 C 84 % 1035,4 hPa 0,0 l/m 0,0 km/h (0 Bft) NW 315 4,4 C 6,9 C
22.03.2012 06:32 7,0 C 84 % 1035,4 hPa 0,0 l/m 0,0 km/h (0 Bft) NW 315 4,5 C 7,0 C
22.03.2012 06:37 7,1 C 84 % 1035,3 hPa 0,0 l/m 0,0 km/h (0 Bft) W 270 4,6 C 7,1 C
22.03.2012 06:42 7,1 C 84 % 1035,4 hPa 0,0 l/m 0,0 km/h (0 Bft) W 270 4,6 C 7,1 C
22.03.2012 06:47 7,1 C 84 % 1035,4 hPa 0,0 l/m 0,0 km/h (0 Bft) W 270 4,6 C 7,1 C
22.03.2012 06:52 7,1 C 84 % 1035,3 hPa 0,0 l/m 0,0 km/h (0 Bft) W 270 4,6 C 7,1 C
22.03.2012 06:57 7,1 C 84 % 1035,3 hPa 0,0 l/m 0,0 km/h (0 Bft) W 270 4,6 C 7,1 C
22.03.2012 07:02 7,1 C 84 % 1035,4 hPa 0,0 l/m 0,0 km/h (0 Bft) W 270 4,6 C 7,1 C
22.03.2012 07:07 7,1 C 84 % 1035,4 hPa 0,0 l/m 0,0 km/h (0 Bft) W 270 4,6 C 7,1 C
22.03.2012 07:12 7,2 C 84 % 1035,4 hPa 0,0 l/m 0,0 km/h (0 Bft) W 270 4,7 C 7,2 C
22.03.2012 07:17 7,2 C 85 % 1035,6 hPa 0,0 l/m 0,0 km/h (0 Bft) W 270 4,9 C 7,2 C
22.03.2012 07:22 7,3 C 85 % 1035,4 hPa 0,0 l/m 1,4 km/h (1 Bft) W 270 4,9 C 7,3 C
22.03.2012 07:27 7,4 C 85 % 1035,5 hPa 0,0 l/m 0,0 km/h (0 Bft) W-NW 292 5,0 C 7,4 C
22.03.2012 07:32 7,6 C 85 % 1035,5 hPa 0,0 l/m 0,0 km/h (0 Bft) W 270 5,2 C 7,6 C
22.03.2012 07:37 7,8 C 85 % 1035,7 hPa 0,0 l/m 0,0 km/h (0 Bft) W 270 5,4 C 7,8 C
22.03.2012 07:42 7,9 C 85 % 1035,7 hPa 0,0 l/m 0,0 km/h (0 Bft) W 270 5,5 C 7,9 C
22.03.2012 07:47 7,9 C 85 % 1035,6 hPa 0,0 l/m 0,0 km/h (0 Bft) W 270 5,5 C 7,9 C
22.03.2012 07:52 8,1 C 85 % 1035,6 hPa 0,0 l/m 0,0 km/h (0 Bft) W-NW 292 5,7 C 8,1 C
22.03.2012 07:57 8,3 C 85 % 1035,6 hPa 0,0 l/m 1,4 km/h (1 Bft) NW 315 5,9 C 8,3 C
22.03.2012 08:02 8,4 C 85 % 1035,7 hPa 0,0 l/m 0,0 km/h (0 Bft) W 270 6,0 C 8,4 C
22.03.2012 08:07 8,5 C 85 % 1035,7 hPa 0,0 l/m 2,2 km/h (1 Bft) W 270 6,1 C 8,5 C
22.03.2012 08:12 8,6 C 85 % 1035,6 hPa 0,0 l/m 2,5 km/h (1 Bft) W 270 6,2 C 8,6 C
22.03.2012 08:17 8,7 C 85 % 1035,6 hPa 0,0 l/m 3,6 km/h (1 Bft) NW 315 6,3 C 8,7 C
22.03.2012 08:22 8,8 C 85 % 1035,7 hPa 0,0 l/m 1,1 km/h (1 Bft) W-NW 292 6,4 C 8,8 C
22.03.2012 08:27 8,9 C 85 % 1035,6 hPa 0,0 l/m 1,8 km/h (1 Bft) NW 315 6,5 C 8,9 C
22.03.2012 08:32 9,1 C 85 % 1035,6 hPa 0,0 l/m 4,0 km/h (1 Bft) W-NW 292 6,7 C 9,1 C
22.03.2012 08:37 9,2 C 84 % 1035,8 hPa 0,0 l/m 2,9 km/h (1 Bft) W 270 6,6 C 9,2 C
22.03.2012 08:42 9,3 C 84 % 1035,7 hPa 0,0 l/m 4,3 km/h (1 Bft) W-NW 292 6,7 C 9,3 C
22.03.2012 08:47 9,4 C 84 % 1035,8 hPa 0,0 l/m 0,0 km/h (0 Bft) W 270 6,8 C 9,4 C
22.03.2012 08:52 9,6 C 83 % 1035,7 hPa 0,0 l/m 1,4 km/h (1 Bft) N 360 6,9 C 9,6 C
22.03.2012 08:57 9,8 C 83 % 1035,6 hPa 0,0 l/m 2,2 km/h (1 Bft) W-NW 292 7,1 C 9,8 C
22.03.2012 09:02 9,9 C 82 % 1035,7 hPa 0,0 l/m 2,9 km/h (1 Bft) N 360 7,0 C 9,9 C
22.03.2012 09:07 10,0 C 81 % 1035,7 hPa 0,0 l/m 4,7 km/h (1 Bft) N 360 6,9 C 9,8 C
22.03.2012 09:12 10,1 C 81 % 1035,7 hPa 0,0 l/m 0,0 km/h (0 Bft) W-NW 292 7,0 C 10,1 C
22.03.2012 09:17 10,4 C 80 % 1035,8 hPa 0,0 l/m 3,2 km/h (1 Bft) W 270 7,1 C 10,4 C
22.03.2012 09:22 10,5 C 80 % 1035,6 hPa 0,0 l/m 3,2 km/h (1 Bft) W-NW 292 7,2 C 10,5 C
22.03.2012 09:27 10,7 C 79 % 1035,8 hPa 0,0 l/m 2,9 km/h (1 Bft) NW 315 7,2 C 10,7 C
22.03.2012 09:32 10,8 C 79 % 1035,7 hPa 0,0 l/m 5,8 km/h (2 Bft) SW 225 7,3 C 10,8 C
22.03.2012 09:37 10,9 C 79 % 1035,8 hPa 0,0 l/m 6,1 km/h (2 Bft) W-NW 292 7,4 C 10,9 C
22.03.2012 09:42 10,9 C 77 % 1035,8 hPa 0,0 l/m 2,5 km/h (1 Bft) W-NW 292 7,0 C 10,9 C
22.03.2012 09:47 11,1 C 77 % 1035,7 hPa 0,0 l/m 4,3 km/h (1 Bft) W-SW 247 7,2 C 11,1 C
22.03.2012 09:52 11,3 C 76 % 1035,6 hPa 0,0 l/m 4,3 km/h (1 Bft) W 270 7,2 C 11,3 C
22.03.2012 09:57 11,3 C 74 % 1035,6 hPa 0,0 l/m 0,0 km/h (0 Bft) W 270 6,8 C 11,3 C
22.03.2012 10:02 11,4 C 74 % 1035,7 hPa 0,0 l/m 2,5 km/h (1 Bft) W-SW 247 6,9 C 11,4 C
22.03.2012 10:07 11,5 C 73 % 1035,7 hPa 0,0 l/m 2,5 km/h (1 Bft) N-NW 337 6,8 C 11,5 C
22.03.2012 10:12 11,6 C 72 % 1035,9 hPa 0,0 l/m 4,0 km/h (1 Bft) NW 315 6,7 C 11,6 C
22.03.2012 10:17 11,8 C 72 % 1035,6 hPa 0,0 l/m 0,0 km/h (0 Bft) W 270 6,9 C 11,8 C
22.03.2012 10:22 11,8 C 71 % 1035,7 hPa 0,0 l/m 0,0 km/h (0 Bft) NO 45 6,7 C 11,8 C
22.03.2012 10:27 11,9 C 71 % 1035,8 hPa 0,0 l/m 3,2 km/h (1 Bft) W-SW 247 6,8 C 11,9 C
22.03.2012 10:32 12,1 C 71 % 1035,7 hPa 0,0 l/m 4,3 km/h (1 Bft) W-SW 247 7,0 C 12,1 C
22.03.2012 10:37 12,2 C 71 % 1035,7 hPa 0,0 l/m 4,0 km/h (1 Bft) W 270 7,1 C 12,2 C
22.03.2012 10:42 12,3 C 71 % 1035,7 hPa 0,0 l/m 1,8 km/h (1 Bft) S-SW 202 7,2 C 12,3 C
22.03.2012 10:47 12,4 C 71 % 1035,6 hPa 0,0 l/m 6,1 km/h (2 Bft) N-NO 22 7,3 C 12,4 C
22.03.2012 10:52 12,4 C 70 % 1035,7 hPa 0,0 l/m 3,6 km/h (1 Bft) W 270 7,1 C 12,4 C
22.03.2012 10:57 12,5 C 70 % 1035,6 hPa 0,0 l/m 0,0 km/h (0 Bft) NW 315 7,2 C 12,5 C
22.03.2012 11:02 12,6 C 69 % 1035,6 hPa 0,0 l/m 4,0 km/h (1 Bft) W 270 7,1 C 12,6 C
22.03.2012 11:07 12,6 C 68 % 1035,4 hPa 0,0 l/m 5,0 km/h (1 Bft) W-SW 247 6,9 C 12,6 C
22.03.2012 11:12 12,7 C 68 % 1035,4 hPa 0,0 l/m 1,1 km/h (1 Bft) W-NW 292 6,9 C 12,7 C
22.03.2012 11:17 12,8 C 68 % 1035,5 hPa 0,0 l/m 6,5 km/h (2 Bft) N-NW 337 7,0 C 12,8 C
22.03.2012 11:22 12,9 C 68 % 1035,4 hPa 0,0 l/m 0,0 km/h (0 Bft) S-SO 157 7,1 C 12,9 C
22.03.2012 11:27 13,0 C 67 % 1035,4 hPa 0,0 l/m 0,0 km/h (0 Bft) W 270 7,0 C 13,0 C
22.03.2012 11:32 13,1 C 66 % 1035,3 hPa 0,0 l/m 1,4 km/h (1 Bft) NO 45 6,9 C 13,1 C
22.03.2012 11:37 13,3 C 65 % 1035,2 hPa 0,0 l/m 1,4 km/h (1 Bft) W-NW 292 6,9 C 13,3 C
22.03.2012 11:42 13,3 C 65 % 1035,3 hPa 0,0 l/m 2,5 km/h (1 Bft) O-NO 67 6,9 C 13,3 C
22.03.2012 11:47 13,3 C 65 % 1035,2 hPa 0,0 l/m 2,9 km/h (1 Bft) W 270 6,9 C 13,3 C
22.03.2012 11:52 13,4 C 65 % 1035,3 hPa 0,0 l/m 6,1 km/h (2 Bft) N 360 7,0 C 13,4 C
22.03.2012 11:57 13,5 C 64 % 1035,1 hPa 0,0 l/m 4,0 km/h (1 Bft) N-NO 22 6,8 C 13,5 C
22.03.2012 12:02 13,6 C 63 % 1035,1 hPa 0,0 l/m 3,2 km/h (1 Bft) N 360 6,7 C 13,6 C
22.03.2012 12:07 13,6 C 63 % 1034,9 hPa 0,0 l/m 3,2 km/h (1 Bft) W 270 6,7 C 13,6 C
22.03.2012 12:12 13,8 C 62 % 1034,9 hPa 0,0 l/m 0,0 km/h (0 Bft) S-SW 202 6,6 C 13,8 C
22.03.2012 12:17 13,9 C 62 % 1034,9 hPa 0,0 l/m 3,2 km/h (1 Bft) N-NW 337 6,7 C 13,9 C
22.03.2012 12:22 13,9 C 62 % 1034,8 hPa 0,0 l/m 1,4 km/h (1 Bft) W 270 6,7 C 13,9 C
22.03.2012 12:27 14,0 C 62 % 1034,8 hPa 0,0 l/m 4,7 km/h (1 Bft) NO 45 6,8 C 14,0 C
22.03.2012 12:32 14,0 C 62 % 1034,7 hPa 0,0 l/m 2,9 km/h (1 Bft) NO 45 6,8 C 14,0 C
22.03.2012 12:37 14,1 C 63 % 1034,6 hPa 0,0 l/m 2,2 km/h (1 Bft) W-SW 247 7,2 C 14,1 C
22.03.2012 12:42 14,3 C 62 % 1034,8 hPa 0,0 l/m 0,0 km/h (0 Bft) NW 315 7,1 C 14,3 C
22.03.2012 12:47 14,4 C 62 % 1034,6 hPa 0,0 l/m 0,0 km/h (0 Bft) W-NW 292 7,2 C 14,4 C
22.03.2012 12:52 14,4 C 61 % 1034,5 hPa 0,0 l/m 6,5 km/h (2 Bft) NW 315 7,0 C 14,4 C
22.03.2012 12:57 14,6 C 60 % 1034,4 hPa 0,0 l/m 3,2 km/h (1 Bft) O-SO 112 6,9 C 14,6 C
22.03.2012 13:02 14,6 C 60 % 1034,3 hPa 0,0 l/m 1,8 km/h (1 Bft) N-NO 22 6,9 C 14,6 C
22.03.2012 13:07 14,9 C 59 % 1034,3 hPa 0,0 l/m 0,0 km/h (0 Bft) O-SO 112 7,0 C 14,9 C
22.03.2012 13:12 14,9 C 58 % 1034,2 hPa 0,0 l/m 7,2 km/h (2 Bft) W 270 6,7 C 14,9 C
22.03.2012 13:17 14,9 C 58 % 1034,1 hPa 0,0 l/m 3,6 km/h (1 Bft) NW 315 6,7 C 14,9 C
22.03.2012 13:22 15,2 C 58 % 1034,3 hPa 0,0 l/m 0,0 km/h (0 Bft) N 360 7,0 C 15,2 C
22.03.2012 13:27 15,3 C 57 % 1034,0 hPa 0,0 l/m 5,0 km/h (1 Bft) W-NW 292 6,8 C 15,3 C
22.03.2012 13:32 15,4 C 56 % 1034,1 hPa 0,0 l/m 4,7 km/h (1 Bft) W 270 6,7 C 15,4 C
22.03.2012 13:37 15,6 C 56 % 1034,1 hPa 0,0 l/m 5,4 km/h (1 Bft) W 270 6,9 C 15,6 C
22.03.2012 13:42 15,8 C 56 % 1034,0 hPa 0,0 l/m 6,1 km/h (2 Bft) W-NW 292 7,0 C 15,8 C
22.03.2012 13:47 15,8 C 56 % 1033,8 hPa 0,0 l/m 3,2 km/h (1 Bft) W-NW 292 7,0 C 15,8 C
22.03.2012 13:52 15,9 C 55 % 1033,9 hPa 0,0 l/m 4,7 km/h (1 Bft) W 270 6,9 C 15,9 C
22.03.2012 13:57 15,9 C 55 % 1033,9 hPa 0,0 l/m 2,5 km/h (1 Bft) W-NW 292 6,9 C 15,9 C
22.03.2012 14:02 16,1 C 55 % 1033,7 hPa 0,0 l/m 3,2 km/h (1 Bft) N 360 7,1 C 16,1 C
22.03.2012 14:07 16,1 C 54 % 1033,6 hPa 0,0 l/m 5,8 km/h (2 Bft) W-NW 292 6,8 C 16,1 C
22.03.2012 14:12 16,2 C 54 % 1033,6 hPa 0,0 l/m 6,1 km/h (2 Bft) W-NW 292 6,9 C 16,2 C
22.03.2012 14:17 16,3 C 54 % 1033,6 hPa 0,0 l/m 4,0 km/h (1 Bft) W-NW 292 7,0 C 16,3 C
22.03.2012 14:22 16,4 C 53 % 1033,6 hPa 0,0 l/m 0,0 km/h (0 Bft) W-NW 292 6,8 C 16,4 C
22.03.2012 14:27 16,4 C 54 % 1033,5 hPa 0,0 l/m 2,2 km/h (1 Bft) W 270 7,1 C 16,4 C
22.03.2012 14:32 16,3 C 53 % 1033,7 hPa 0,0 l/m 0,0 km/h (0 Bft) O-NO 67 6,7 C 16,3 C
22.03.2012 14:37 16,3 C 55 % 1033,6 hPa 0,0 l/m 1,8 km/h (1 Bft) W-NW 292 7,2 C 16,3 C
22.03.2012 14:42 16,4 C 54 % 1033,4 hPa 0,0 l/m 1,1 km/h (1 Bft) W 270 7,1 C 16,4 C
22.03.2012 14:47 16,6 C 54 % 1033,3 hPa 0,0 l/m 3,2 km/h (1 Bft) W-SW 247 7,3 C 16,6 C
22.03.2012 14:52 16,8 C 54 % 1033,3 hPa 0,0 l/m 7,2 km/h (2 Bft) W-SW 247 7,4 C 16,8 C
22.03.2012 14:57 16,9 C 54 % 1033,3 hPa 0,0 l/m 3,2 km/h (1 Bft) W-NW 292 7,5 C 16,9 C
22.03.2012 15:02 16,9 C 54 % 1033,3 hPa 0,0 l/m 0,0 km/h (0 Bft) W-NW 292 7,5 C 16,9 C
22.03.2012 15:07 17,1 C 53 % 1033,3 hPa 0,0 l/m 3,6 km/h (1 Bft) W-NW 292 7,4 C 17,1 C
22.03.2012 15:12 17,1 C 53 % 1033,2 hPa 0,0 l/m 1,4 km/h (1 Bft) N-NO 22 7,4 C 17,1 C
22.03.2012 15:17 16,9 C 53 % 1033,2 hPa 0,0 l/m 1,8 km/h (1 Bft) W 270 7,3 C 16,9 C
22.03.2012 15:22 16,9 C 53 % 1033,1 hPa 0,0 l/m 2,2 km/h (1 Bft) W 270 7,3 C 16,9 C
22.03.2012 15:27 17,1 C 53 % 1033,1 hPa 0,0 l/m 2,5 km/h (1 Bft) W-NW 292 7,4 C 17,1 C
22.03.2012 15:32 17,2 C 54 % 1033,0 hPa 0,0 l/m 4,7 km/h (1 Bft) W 270 7,8 C 17,2 C
22.03.2012 15:37 17,2 C 54 % 1033,0 hPa 0,0 l/m 3,6 km/h (1 Bft) W 270 7,8 C 17,2 C
22.03.2012 15:42 17,1 C 53 % 1033,0 hPa 0,0 l/m 0,0 km/h (0 Bft) W-NW 292 7,4 C 17,1 C
22.03.2012 15:47 17,1 C 53 % 1032,9 hPa 0,0 l/m 0,0 km/h (0 Bft) W 270 7,4 C 17,1 C
22.03.2012 15:52 17,1 C 54 % 1032,8 hPa 0,0 l/m 0,0 km/h (0 Bft) NO 45 7,7 C 17,1 C
22.03.2012 15:57 17,1 C 53 % 1032,7 hPa 0,0 l/m 0,0 km/h (0 Bft) W 270 7,4 C 17,1 C
22.03.2012 16:02 16,9 C 52 % 1032,7 hPa 0,0 l/m 3,6 km/h (1 Bft) W 270 7,0 C 16,9 C
22.03.2012 16:07 16,8 C 52 % 1032,6 hPa 0,0 l/m 2,9 km/h (1 Bft) N-NW 337 6,9 C 16,8 C
22.03.2012 16:12 16,6 C 52 % 1032,6 hPa 0,0 l/m 1,8 km/h (1 Bft) NO 45 6,7 C 16,6 C
22.03.2012 16:17 16,5 C 53 % 1032,6 hPa 0,0 l/m 2,2 km/h (1 Bft) NW 315 6,9 C 16,5 C
22.03.2012 16:22 16,6 C 53 % 1032,5 hPa 0,0 l/m 0,0 km/h (0 Bft) O 90 7,0 C 16,6 C
22.03.2012 16:27 16,4 C 53 % 1032,4 hPa 0,0 l/m 3,2 km/h (1 Bft) NW 315 6,8 C 16,4 C
22.03.2012 16:32 16,5 C 53 % 1032,3 hPa 0,0 l/m 2,5 km/h (1 Bft) NW 315 6,9 C 16,5 C
22.03.2012 16:37 16,6 C 54 % 1032,3 hPa 0,0 l/m 0,0 km/h (0 Bft) W-NW 292 7,3 C 16,6 C
22.03.2012 16:42 16,6 C 54 % 1032,3 hPa 0,0 l/m 1,4 km/h (1 Bft) NW 315 7,3 C 16,6 C
22.03.2012 16:47 16,4 C 54 % 1032,3 hPa 0,0 l/m 2,9 km/h (1 Bft) NO 45 7,1 C 16,4 C
22.03.2012 16:52 16,3 C 54 % 1032,2 hPa 0,0 l/m 3,6 km/h (1 Bft) O-NO 67 7,0 C 16,3 C
22.03.2012 16:57 16,1 C 54 % 1032,2 hPa 0,0 l/m 1,8 km/h (1 Bft) O-NO 67 6,8 C 16,1 C
22.03.2012 17:02 16,1 C 55 % 1032,1 hPa 0,0 l/m 0,0 km/h (0 Bft) N 360 7,1 C 16,1 C
22.03.2012 17:07 16,1 C 55 % 1032,3 hPa 0,0 l/m 2,2 km/h (1 Bft) NW 315 7,1 C 16,1 C
22.03.2012 17:12 16,0 C 55 % 1032,2 hPa 0,0 l/m 2,5 km/h (1 Bft) N 360 7,0 C 16,0 C
22.03.2012 17:17 15,9 C 55 % 1032,2 hPa 0,0 l/m 1,4 km/h (1 Bft) O-NO 67 6,9 C 15,9 C
22.03.2012 17:22 15,8 C 55 % 1032,1 hPa 0,0 l/m 0,0 km/h (0 Bft) N 360 6,8 C 15,8 C
22.03.2012 17:27 15,8 C 55 % 1032,0 hPa 0,0 l/m 0,0 km/h (0 Bft) NO 45 6,8 C 15,8 C
22.03.2012 17:32 15,7 C 56 % 1032,0 hPa 0,0 l/m 1,8 km/h (1 Bft) N 360 6,9 C 15,7 C
22.03.2012 17:37 15,6 C 56 % 1032,0 hPa 0,0 l/m 0,0 km/h (0 Bft) NW 315 6,9 C 15,6 C
22.03.2012 17:42 15,5 C 56 % 1032,0 hPa 0,0 l/m 0,0 km/h (0 Bft) N-NW 337 6,8 C 15,5 C
22.03.2012 17:47 15,4 C 57 % 1032,0 hPa 0,0 l/m 0,0 km/h (0 Bft) W-NW 292 6,9 C 15,4 C
22.03.2012 17:52 15,3 C 57 % 1031,9 hPa 0,0 l/m 0,0 km/h (0 Bft) W-NW 292 6,8 C 15,3 C
22.03.2012 17:57 15,3 C 58 % 1032,0 hPa 0,0 l/m 0,0 km/h (0 Bft) W-NW 292 7,1 C 15,3 C
22.03.2012 18:02 15,2 C 58 % 1031,9 hPa 0,0 l/m 0,0 km/h (0 Bft) W-NW 292 7,0 C 15,2 C
22.03.2012 18:07 15,0 C 58 % 1032,0 hPa 0,0 l/m 0,0 km/h (0 Bft) NW 315 6,8 C 15,0 C
22.03.2012 18:12 14,9 C 58 % 1032,1 hPa 0,0 l/m 0,0 km/h (0 Bft) NW 315 6,7 C 14,9 C
22.03.2012 18:17 14,9 C 59 % 1032,0 hPa 0,0 l/m 0,0 km/h (0 Bft) NW 315 7,0 C 14,9 C
22.03.2012 18:22 14,8 C 59 % 1032,0 hPa 0,0 l/m 0,0 km/h (0 Bft) N-NW 337 6,9 C 14,8 C
22.03.2012 18:27 14,6 C 59 % 1031,9 hPa 0,0 l/m 1,4 km/h (1 Bft) N 360 6,7 C 14,6 C
22.03.2012 18:32 14,4 C 60 % 1031,9 hPa 0,0 l/m 0,0 km/h (0 Bft) N 360 6,7 C 14,4 C
22.03.2012 18:37 14,2 C 60 % 1031,9 hPa 0,0 l/m 0,0 km/h (0 Bft) N-NO 22 6,5 C 14,2 C
22.03.2012 18:42 13,9 C 61 % 1031,9 hPa 0,0 l/m 0,0 km/h (0 Bft) N-NO 22 6,5 C 13,9 C
22.03.2012 18:47 13,8 C 61 % 1031,9 hPa 0,0 l/m 0,0 km/h (0 Bft) N-NO 22 6,4 C 13,8 C
22.03.2012 18:52 13,6 C 61 % 1032,0 hPa 0,0 l/m 0,0 km/h (0 Bft) N-NO 22 6,2 C 13,6 C
22.03.2012 18:57 13,5 C 62 % 1031,9 hPa 0,0 l/m 0,0 km/h (0 Bft) N-NO 22 6,4 C 13,5 C
22.03.2012 19:02 13,4 C 62 % 1031,9 hPa 0,0 l/m 0,0 km/h (0 Bft) N-NO 22 6,3 C 13,4 C
22.03.2012 19:07 13,3 C 62 % 1032,0 hPa 0,0 l/m 0,0 km/h (0 Bft) N-NO 22 6,2 C 13,3 C
22.03.2012 19:12 13,1 C 63 % 1031,9 hPa 0,0 l/m 0,0 km/h (0 Bft) N-NO 22 6,2 C 13,1 C
22.03.2012 19:17 13,1 C 64 % 1032,0 hPa 0,0 l/m 0,0 km/h (0 Bft) N-NO 22 6,4 C 13,1 C
22.03.2012 19:22 13,0 C 64 % 1032,0 hPa 0,0 l/m 0,0 km/h (0 Bft) N-NO 22 6,4 C 13,0 C
22.03.2012 19:27 12,9 C 65 % 1031,9 hPa 0,0 l/m 0,0 km/h (0 Bft) N-NO 22 6,5 C 12,9 C
22.03.2012 19:32 12,9 C 65 % 1031,9 hPa 0,0 l/m 0,0 km/h (0 Bft) N-NO 22 6,5 C 12,9 C
22.03.2012 19:37 12,7 C 65 % 1031,9 hPa 0,0 l/m 0,0 km/h (0 Bft) N-NO 22 6,3 C 12,7 C
22.03.2012 19:42 12,6 C 65 % 1032,0 hPa 0,0 l/m 0,0 km/h (0 Bft) N-NW 337 6,2 C 12,6 C
22.03.2012 19:47 12,5 C 65 % 1032,0 hPa 0,0 l/m 0,0 km/h (0 Bft) NW 315 6,1 C 12,5 C
22.03.2012 19:52 12,4 C 67 % 1031,8 hPa 0,0 l/m 0,0 km/h (0 Bft) NW 315 6,4 C 12,4 C
22.03.2012 19:57 12,3 C 68 % 1032,0 hPa 0,0 l/m 0,0 km/h (0 Bft) NW 315 6,6 C 12,3 C
22.03.2012 20:02 12,2 C 68 % 1032,0 hPa 0,0 l/m 0,0 km/h (0 Bft) NW 315 6,5 C 12,2 C
22.03.2012 20:07 12,1 C 69 % 1032,0 hPa 0,0 l/m 0,0 km/h (0 Bft) NW 315 6,6 C 12,1 C
22.03.2012 20:12 11,9 C 70 % 1032,0 hPa 0,0 l/m 0,0 km/h (0 Bft) NW 315 6,6 C 11,9 C
22.03.2012 20:17 11,9 C 70 % 1031,9 hPa 0,0 l/m 0,0 km/h (0 Bft) NW 315 6,6 C 11,9 C
22.03.2012 20:22 11,8 C 71 % 1031,9 hPa 0,0 l/m 0,0 km/h (0 Bft) NW 315 6,7 C 11,8 C
22.03.2012 20:27 11,7 C 71 % 1031,9 hPa 0,0 l/m 0,0 km/h (0 Bft) W-SW 247 6,6 C 11,7 C
22.03.2012 20:32 11,6 C 71 % 1031,9 hPa 0,0 l/m 0,0 km/h (0 Bft) W-SW 247 6,5 C 11,6 C
22.03.2012 20:37 11,5 C 71 % 1031,8 hPa 0,0 l/m 0,0 km/h (0 Bft) W-SW 247 6,4 C 11,5 C
22.03.2012 20:42 11,3 C 72 % 1032,1 hPa 0,0 l/m 0,0 km/h (0 Bft) W-SW 247 6,4 C 11,3 C
22.03.2012 20:47 11,1 C 73 % 1031,9 hPa 0,0 l/m 0,0 km/h (0 Bft) W-NW 292 6,4 C 11,1 C
22.03.2012 20:52 10,9 C 74 % 1031,9 hPa 0,0 l/m 0,0 km/h (0 Bft) W-NW 292 6,5 C 10,9 C
22.03.2012 20:57 10,6 C 75 % 1031,9 hPa 0,0 l/m 0,0 km/h (0 Bft) N 360 6,4 C 10,6 C
22.03.2012 21:02 10,4 C 75 % 1031,9 hPa 0,0 l/m 1,4 km/h (1 Bft) N 360 6,2 C 10,4 C
22.03.2012 21:07 10,3 C 76 % 1032,0 hPa 0,0 l/m 1,1 km/h (1 Bft) N-NO 22 6,3 C 10,3 C
22.03.2012 21:12 10,2 C 75 % 1031,9 hPa 0,0 l/m 0,0 km/h (0 Bft) N 360 6,0 C 10,2 C
22.03.2012 21:17 10,1 C 75 % 1031,8 hPa 0,0 l/m 0,0 km/h (0 Bft) N 360 5,9 C 10,1 C
22.03.2012 21:22 10,1 C 75 % 1031,7 hPa 0,0 l/m 1,1 km/h (1 Bft) N 360 5,9 C 10,1 C
22.03.2012 21:27 10,1 C 74 % 1031,7 hPa 0,0 l/m 0,0 km/h (0 Bft) N 360 5,7 C 10,1 C
22.03.2012 21:32 9,9 C 74 % 1031,6 hPa 0,0 l/m 0,0 km/h (0 Bft) N 360 5,5 C 9,9 C
22.03.2012 21:37 9,9 C 74 % 1031,7 hPa 0,0 l/m 0,0 km/h (0 Bft) N 360 5,5 C 9,9 C
22.03.2012 21:42 10,1 C 74 % 1031,5 hPa 0,0 l/m 0,0 km/h (0 Bft) N-NW 337 5,7 C 10,1 C
22.03.2012 21:47 10,1 C 74 % 1031,7 hPa 0,0 l/m 0,0 km/h (0 Bft) N-NW 337 5,7 C 10,1 C
22.03.2012 21:52 10,1 C 74 % 1031,6 hPa 0,0 l/m 0,0 km/h (0 Bft) N-NW 337 5,7 C 10,1 C
22.03.2012 21:57 10,1 C 74 % 1031,6 hPa 0,0 l/m 0,0 km/h (0 Bft) N-NW 337 5,7 C 10,1 C
22.03.2012 22:02 9,9 C 75 % 1031,7 hPa 0,0 l/m 0,0 km/h (0 Bft) N 360 5,7 C 9,9 C
22.03.2012 22:07 9,9 C 75 % 1031,7 hPa 0,0 l/m 1,4 km/h (1 Bft) N-NO 22 5,7 C 9,9 C
22.03.2012 22:12 9,8 C 76 % 1031,8 hPa 0,0 l/m 3,2 km/h (1 Bft) N-NO 22 5,8 C 9,8 C
22.03.2012 22:17 9,8 C 75 % 1031,7 hPa 0,0 l/m 2,9 km/h (1 Bft) NO 45 5,6 C 9,8 C
22.03.2012 22:22 9,8 C 75 % 1031,9 hPa 0,0 l/m 1,4 km/h (1 Bft) NO 45 5,6 C 9,8 C
22.03.2012 22:27 9,9 C 74 % 1031,8 hPa 0,0 l/m 1,8 km/h (1 Bft) O-NO 67 5,5 C 9,9 C
22.03.2012 22:32 9,8 C 74 % 1031,9 hPa 0,0 l/m 0,0 km/h (0 Bft) N-NO 22 5,4 C 9,8 C
22.03.2012 22:37 9,6 C 74 % 1031,7 hPa 0,0 l/m 2,2 km/h (1 Bft) S-SO 157 5,2 C 9,6 C
22.03.2012 22:42 9,6 C 75 % 1031,9 hPa 0,0 l/m 0,0 km/h (0 Bft) S 180 5,4 C 9,6 C
22.03.2012 22:47 9,5 C 75 % 1031,6 hPa 0,0 l/m 0,0 km/h (0 Bft) S 180 5,3 C 9,5 C
22.03.2012 22:52 9,4 C 75 % 1031,8 hPa 0,0 l/m 0,0 km/h (0 Bft) S 180 5,2 C 9,4 C
22.03.2012 22:57 9,3 C 75 % 1031,7 hPa 0,0 l/m 0,0 km/h (0 Bft) S 180 5,1 C 9,3 C
22.03.2012 23:02 9,3 C 75 % 1031,8 hPa 0,0 l/m 0,0 km/h (0 Bft) S 180 5,1 C 9,3 C
22.03.2012 23:07 9,2 C 76 % 1031,6 hPa 0,0 l/m 0,0 km/h (0 Bft) S 180 5,2 C 9,2 C
22.03.2012 23:12 9,2 C 76 % 1031,7 hPa 0,0 l/m 0,0 km/h (0 Bft) S-SW 202 5,2 C 9,2 C
22.03.2012 23:17 9,2 C 76 % 1031,7 hPa 0,0 l/m 0,0 km/h (0 Bft) S-SW 202 5,2 C 9,2 C
22.03.2012 23:22 9,1 C 76 % 1031,7 hPa 0,0 l/m 0,0 km/h (0 Bft) S-SW 202 5,1 C 9,1 C
22.03.2012 23:27 9,0 C 76 % 1031,8 hPa 0,0 l/m 0,0 km/h (0 Bft) S-SW 202 5,0 C 9,0 C
22.03.2012 23:32 8,9 C 77 % 1031,6 hPa 0,0 l/m 0,0 km/h (0 Bft) S-SW 202 5,1 C 8,9 C
22.03.2012 23:37 8,9 C 77 % 1031,6 hPa 0,0 l/m 0,0 km/h (0 Bft) S-SW 202 5,1 C 8,9 C
22.03.2012 23:42 8,8 C 77 % 1031,5 hPa 0,0 l/m 0,0 km/h (0 Bft) S-SW 202 5,0 C 8,8 C
22.03.2012 23:47 8,6 C 77 % 1031,6 hPa 0,0 l/m 0,0 km/h (0 Bft) SW 225 4,8 C 8,6 C
22.03.2012 23:52 8,5 C 78 % 1031,6 hPa 0,0 l/m 0,0 km/h (0 Bft) SW 225 4,9 C 8,5 C
22.03.2012 23:57 8,4 C 78 % 1031,5 hPa 0,0 l/m 0,0 km/h (0 Bft) SW 225 4,8 C 8,4 C
_ Min-Zeit 06:02 16:02 21:42 - 00:07 - - 06:02 06:02
Minimum _ 6,9 C 52 % 1031,5 hPa - 0,0 km/h (0 Bft) - - 4,4 C 6,9 C
_ Max-Zeit 15:32 07:17 00:12 00:02 13:12 - - 15:32 15:32
Maximum _ 17,2 C 85 % 1036,0 hPa 0,0 l/m 7,2 km/h
W (2 Bft)
- - 7,8 C 17,2 C
Durchschnitt _ 11,7 C 71 % 1034,1 hPa #0,0 l/m 1,1 km/h (1 Bft) W - 6,3 C 11,7 C
(c) by David Heller